createdAt,value
2022-11-12T00:02:27.866Z,19.08
2022-11-12T00:05:14.999Z,12.27
2022-11-12T00:08:02.371Z,5.05
2022-11-12T00:10:49.242Z,9.77
2022-11-12T00:13:35.772Z,11.50
2022-11-12T00:16:22.435Z,8.27
2022-11-12T00:19:09.375Z,26.83
2022-11-12T00:21:56.338Z,26.73
2022-11-12T00:24:42.734Z,27.60
2022-11-12T00:27:29.007Z,54.22
2022-11-12T00:30:16.837Z,17.95
2022-11-12T00:33:04.672Z,34.25
2022-11-12T00:35:50.897Z,41.28
2022-11-12T00:38:37.529Z,42.72
2022-11-12T00:41:24.072Z,41.55
2022-11-12T00:44:11.089Z,52.10
2022-11-12T00:46:57.492Z,39.33
2022-11-12T00:49:43.821Z,54.47
2022-11-12T00:52:30.345Z,52.35
2022-11-12T00:55:16.801Z,57.88
2022-11-12T00:58:03.624Z,34.45
2022-11-12T01:00:50.648Z,84.00
2022-11-12T01:03:44.422Z,62.45
2022-11-12T01:06:31.066Z,22.55
2022-11-12T01:09:18.561Z,16.02
2022-11-12T01:12:06.317Z,22.00
2022-11-12T01:14:53.097Z,31.42
2022-11-12T01:17:40.315Z,36.15
2022-11-12T01:20:26.492Z,46.47
2022-11-12T01:23:13.129Z,62.17
2022-11-12T01:26:04.292Z,22.73
2022-11-12T01:28:51.756Z,29.80
2022-11-12T01:31:39.374Z,31.85
2022-11-12T01:34:26.609Z,26.27
2022-11-12T01:37:13.715Z,40.85
2022-11-12T01:40:00.365Z,60.63
2022-11-12T01:42:53.941Z,62.72
2022-11-12T01:45:46.636Z,21.02
2022-11-12T01:48:39.736Z,16.35
2022-11-12T01:51:37.570Z,30.83
2022-11-12T01:54:27.109Z,17.52
2022-11-12T01:57:15.733Z,34.75
2022-11-12T02:00:10.075Z,27.02
2022-11-12T02:03:01.061Z,25.88
2022-11-12T02:05:52.044Z,15.85
2022-11-12T02:08:40.267Z,29.90
2022-11-12T02:11:26.841Z,31.48
2022-11-12T02:14:14.431Z,18.13
2022-11-12T02:17:01.504Z,14.73
2022-11-12T02:19:48.728Z,17.45
2022-11-12T02:22:35.381Z,40.58
2022-11-12T02:25:24.633Z,13.20
2022-11-12T02:28:10.939Z,24.20
2022-11-12T02:30:57.712Z,30.92
2022-11-12T02:33:44.569Z,21.42
2022-11-12T02:36:31.335Z,33.85
2022-11-12T02:39:17.904Z,27.52
2022-11-12T02:42:04.819Z,12.55
2022-11-12T02:44:51.532Z,6.22
2022-11-12T02:47:38.216Z,7.00
2022-11-12T02:50:25.067Z,22.63
2022-11-12T02:53:11.966Z,11.95
2022-11-12T02:56:00.204Z,16.77
2022-11-12T02:58:47.396Z,14.05
2022-11-12T03:01:34.620Z,7.68
2022-11-12T03:04:21.198Z,25.95
2022-11-12T03:07:08.189Z,35.53
2022-11-12T03:09:54.878Z,21.13
2022-11-12T03:12:41.145Z,20.63
2022-11-12T03:15:29.634Z,8.75
2022-11-12T03:18:16.641Z,24.70
2022-11-12T03:21:03.515Z,7.05
2022-11-12T03:23:50.235Z,15.20
2022-11-12T03:26:37.008Z,12.20
2022-11-12T03:29:23.967Z,12.07
2022-11-12T03:32:10.581Z,4.57
2022-11-12T03:34:58.128Z,6.07
2022-11-12T03:38:05.727Z,13.85
2022-11-12T03:40:52.503Z,9.15
2022-11-12T03:43:39.549Z,7.13
2022-11-12T03:46:26.426Z,13.15
2022-11-12T03:49:13.226Z,14.20
2022-11-12T03:51:59.489Z,10.63
2022-11-12T03:54:46.105Z,7.47
2022-11-12T03:57:33.097Z,13.27
2022-11-12T04:00:22.726Z,10.35
2022-11-12T04:03:09.098Z,16.52
2022-11-12T04:06:15.085Z,15.55
2022-11-12T04:09:01.540Z,8.13
2022-11-12T04:11:48.303Z,16.20
2022-11-12T04:14:35.378Z,14.43
2022-11-12T04:17:40.828Z,8.30
2022-11-12T04:21:06.252Z,5.45
2022-11-12T04:23:53.202Z,4.55
2022-11-12T04:26:40.091Z,6.75
2022-11-12T04:29:46.015Z,4.50
2022-11-12T04:32:36.962Z,13.27
2022-11-12T04:35:27.730Z,5.07
2022-11-12T04:38:14.121Z,10.13
2022-11-12T04:41:19.811Z,8.05
2022-11-12T04:44:25.479Z,5.85
2022-11-12T04:47:12.287Z,7.75
2022-11-12T04:49:59.617Z,4.63
2022-11-12T04:52:46.315Z,4.57
2022-11-12T04:55:33.331Z,9.32
2022-11-12T04:58:20.323Z,5.50
2022-11-12T05:01:07.107Z,8.23
2022-11-12T05:03:53.462Z,7.38
2022-11-12T05:06:52.168Z,15.65
2022-11-12T05:09:39.146Z,8.73
2022-11-12T05:12:26.993Z,11.20
2022-11-12T05:15:13.535Z,4.18
2022-11-12T05:18:00.831Z,5.55
2022-11-12T05:20:48.029Z,3.97
2022-11-12T05:23:34.207Z,4.05
2022-11-12T05:26:20.656Z,6.20
2022-11-12T05:29:08.921Z,6.85
2022-11-12T05:31:56.343Z,3.83
2022-11-12T05:34:43.456Z,4.72
2022-11-12T05:37:30.904Z,4.15
2022-11-12T05:40:17.562Z,4.90
2022-11-12T05:43:04.051Z,5.28
2022-11-12T05:45:50.640Z,4.10
2022-11-12T05:48:37.095Z,5.57
2022-11-12T05:51:24.697Z,3.58
2022-11-12T05:54:12.470Z,3.55
2022-11-12T05:56:59.661Z,3.05
2022-11-12T05:59:46.163Z,3.42
2022-11-12T06:02:32.799Z,3.22
2022-11-12T06:05:20.256Z,3.50
2022-11-12T06:08:07.280Z,4.10
2022-11-12T06:10:55.512Z,3.30
2022-11-12T06:13:42.438Z,3.42
2022-11-12T06:16:31.382Z,3.58
2022-11-12T06:19:18.408Z,4.00
2022-11-12T06:22:05.001Z,3.97
2022-11-12T06:24:51.733Z,4.32
2022-11-12T06:27:38.798Z,4.28
2022-11-12T06:30:26.012Z,4.40
2022-11-12T06:33:12.479Z,6.75
2022-11-12T06:36:03.423Z,4.75
2022-11-12T06:38:50.393Z,4.72
2022-11-12T06:41:36.944Z,4.40
2022-11-12T06:44:23.312Z,5.05
2022-11-12T06:47:10.974Z,4.97
2022-11-12T06:49:57.814Z,4.28
2022-11-12T06:52:44.004Z,4.53
2022-11-12T06:55:30.528Z,3.97
2022-11-12T06:58:17.541Z,4.47
2022-11-12T07:01:17.493Z,5.97
2022-11-12T07:04:04.415Z,6.30
2022-11-12T07:06:51.586Z,4.85
2022-11-12T07:09:38.073Z,7.93
2022-11-12T07:12:25.226Z,6.57
2022-11-12T07:15:11.680Z,5.50
2022-11-12T07:17:58.040Z,5.68
2022-11-12T07:20:44.699Z,8.73
2022-11-12T07:23:34.223Z,5.40
2022-11-12T07:26:24.515Z,6.85
2022-11-12T07:29:11.461Z,7.55
2022-11-12T07:31:58.790Z,6.30
2022-11-12T07:34:45.552Z,5.10
2022-11-12T07:37:33.701Z,5.47
2022-11-12T07:40:22.017Z,6.10
2022-11-12T07:43:08.668Z,8.68
2022-11-12T07:46:07.513Z,6.28
2022-11-12T07:49:04.145Z,6.72
2022-11-12T07:51:50.925Z,5.20
2022-11-12T07:54:37.706Z,6.70
2022-11-12T07:57:25.126Z,4.75
2022-11-12T08:00:12.574Z,4.80
2022-11-12T08:03:05.064Z,4.88
2022-11-12T08:05:54.418Z,4.72
2022-11-12T08:08:40.993Z,5.72
2022-11-12T08:11:27.858Z,5.57
2022-11-12T08:14:14.758Z,6.13
2022-11-12T08:17:01.420Z,9.07
2022-11-12T08:19:48.032Z,6.35
2022-11-12T08:22:34.376Z,5.88
2022-11-12T08:25:20.779Z,5.88
2022-11-12T08:28:07.794Z,5.63
2022-11-12T08:30:55.011Z,5.50
2022-11-12T12:11:01.167Z,8.65
2022-11-12T12:14:52.262Z,7.75
2022-11-12T12:24:05.795Z,10.70
2022-11-12T18:05:10.399Z,52.20
2022-11-12T18:07:58.036Z,48.37
2022-11-12T18:10:47.098Z,47.95
2022-11-12T18:13:33.827Z,49.05
2022-11-12T18:16:31.688Z,57.53
2022-11-12T18:19:18.710Z,47.15
2022-11-12T18:22:05.774Z,45.10
2022-11-12T18:24:53.147Z,45.35
2022-11-12T18:27:39.742Z,45.72
2022-11-12T18:30:26.653Z,47.90
2022-11-12T18:33:13.512Z,63.92
2022-11-12T18:36:12.669Z,46.38
2022-11-12T18:39:01.056Z,64.28
2022-11-12T18:41:47.654Z,47.22
2022-11-12T18:44:34.328Z,67.72
2022-11-12T18:47:23.215Z,56.65
2022-11-12T18:50:10.677Z,59.70
2022-11-12T18:52:57.270Z,53.05
2022-11-12T18:55:44.399Z,28.80
2022-11-12T18:58:35.140Z,34.58
2022-11-12T19:01:25.311Z,51.88
2022-11-12T19:04:12.079Z,49.33
2022-11-12T19:06:59.158Z,52.33
2022-11-12T19:09:45.675Z,73.80
2022-11-12T19:12:32.202Z,51.03
2022-11-12T19:15:24.049Z,70.93
2022-11-12T19:18:15.169Z,52.38
2022-11-12T19:21:09.606Z,42.30
2022-11-12T19:23:57.672Z,56.13
2022-11-12T19:26:44.839Z,29.70
2022-11-12T19:29:32.730Z,73.70
2022-11-12T19:32:23.687Z,32.92
2022-11-12T19:35:15.005Z,51.47
2022-11-12T19:38:02.883Z,74.85
2022-11-12T19:40:49.835Z,56.20
2022-11-12T19:43:40.512Z,58.63
2022-11-12T19:46:27.548Z,64.82
2022-11-12T19:49:14.497Z,38.03
2022-11-12T19:52:03.059Z,49.47
2022-11-12T19:54:51.140Z,38.97
2022-11-12T19:57:37.916Z,31.80
2022-11-12T20:00:25.259Z,25.05
2022-11-12T20:03:12.279Z,17.73
2022-11-12T20:06:08.992Z,41.50
2022-11-12T20:09:04.133Z,29.85
2022-11-12T20:11:51.167Z,22.10
2022-11-12T20:14:37.845Z,24.50
2022-11-12T20:17:24.410Z,25.45
2022-11-12T20:20:11.863Z,23.20
2022-11-12T20:22:58.823Z,28.63
2022-11-12T20:25:46.248Z,22.35
2022-11-12T20:28:38.498Z,21.20
2022-11-12T20:31:25.115Z,17.85
2022-11-12T20:34:13.165Z,14.25
2022-11-12T20:36:59.971Z,24.42
2022-11-12T20:39:47.259Z,21.67
2022-11-12T20:42:33.737Z,25.20
2022-11-12T20:45:21.187Z,23.98
